21/12 a 31/12 - Cuña, luego húmedo e inestable. Primer ingreso de aire tropical

Avatar de Usuario
Diecha
Mensajes: 11069
Registrado: Jue Ago 25, 2011 9:31 pm
Ubicación: Lomas de Zamora

Re: 21/12 a 31/12 - Cuña, luego húmedo e inestable. Primer ingreso de aire tropical

Mensaje por Diecha » Lun Dic 30, 2019 6:27 pm

- San Fernado 18 hs: SADF 302100Z 09012KT 4000 RA SCT015 OVC030 24/22 Q1007
- Aeroparque 18 hs: SABE 302100Z 11014KT 3000 -RA BR SCT009 OVC030 23/22 Q1007
- Ezeiza 18 hs: SAEZ 302100Z 11009KT 1500 RA BKN008 BKN027 OVC060 23/23 Q1007

Imagen
Imagen
Imagen

Avatar de Usuario
Ale de Castelar
Mensajes: 25212
Registrado: Sab Mar 03, 2012 12:25 pm
Ubicación: Caballito

Re: 21/12 a 31/12 - Cuña, luego húmedo e inestable. Primer ingreso de aire tropical

Mensaje por Ale de Castelar » Lun Dic 30, 2019 6:30 pm


Avatar de Usuario
Ale de Castelar
Mensajes: 25212
Registrado: Sab Mar 03, 2012 12:25 pm
Ubicación: Caballito

Re: 21/12 a 31/12 - Cuña, luego húmedo e inestable. Primer ingreso de aire tropical

Mensaje por Ale de Castelar » Lun Dic 30, 2019 6:39 pm

Salta

Avatar de Usuario
Ezequiel1995
Mensajes: 1075
Registrado: Mar Nov 12, 2019 4:50 pm
Ubicación: Merlo, Buenos Aires
Contactar:

Re: 21/12 a 31/12 - Cuña, luego húmedo e inestable. Primer ingreso de aire tropical

Mensaje por Ezequiel1995 » Lun Dic 30, 2019 6:41 pm

A full los tornaditos hoy.

Avatar de Usuario
daros22
Mensajes: 3395
Registrado: Mié Abr 20, 2011 5:18 am
Ubicación: Rosario

Re: 21/12 a 31/12 - Cuña, luego húmedo e inestable. Primer ingreso de aire tropical

Mensaje por daros22 » Lun Dic 30, 2019 6:46 pm

Gran cantidad de reportes de tornados hoy. Otro video del de Cabildo.


Avatar de Usuario
Diecha
Mensajes: 11069
Registrado: Jue Ago 25, 2011 9:31 pm
Ubicación: Lomas de Zamora

Re: 21/12 a 31/12 - Cuña, luego húmedo e inestable. Primer ingreso de aire tropical

Mensaje por Diecha » Lun Dic 30, 2019 7:19 pm


Avatar de Usuario
Ezequiel15
Mensajes: 11158
Registrado: Lun Ene 23, 2012 4:18 pm
Ubicación: I Casanova
Contactar:

Re: 21/12 a 31/12 - Cuña, luego húmedo e inestable. Primer ingreso de aire tropical

Mensaje por Ezequiel15 » Lun Dic 30, 2019 7:22 pm

Vuelve a aumentar la intensidad de la lluvia
In GFS we don't trust
Los datos que escribo en Clima siempre son de OCBA.
https://infometeoba.blogspot.com.ar/

Avatar de Usuario
Diecha
Mensajes: 11069
Registrado: Jue Ago 25, 2011 9:31 pm
Ubicación: Lomas de Zamora

Re: 21/12 a 31/12 - Cuña, luego húmedo e inestable. Primer ingreso de aire tropical

Mensaje por Diecha » Lun Dic 30, 2019 7:26 pm


Avatar de Usuario
daros22
Mensajes: 3395
Registrado: Mié Abr 20, 2011 5:18 am
Ubicación: Rosario

Re: 21/12 a 31/12 - Cuña, luego húmedo e inestable. Primer ingreso de aire tropical

Mensaje por daros22 » Lun Dic 30, 2019 7:32 pm

Ufff, esa tormenta en el noreste de Tucuman frontera con Salta y Santiago del estero...

Son tormentas generandose continuamente al oeste de San fernando de catamarca o es algun tipo de eco falso o interferencia?

Imagen

Avatar de Usuario
Diecha
Mensajes: 11069
Registrado: Jue Ago 25, 2011 9:31 pm
Ubicación: Lomas de Zamora

Re: 21/12 a 31/12 - Cuña, luego húmedo e inestable. Primer ingreso de aire tropical

Mensaje por Diecha » Lun Dic 30, 2019 7:37 pm

- El Palomar 19:17 hs: SADP 302217Z 07010KT 1000 R17/1200 +RA BKN006 OVC045 23/22 Q1007

Imagen

Responder